sensor_id;sensor_type;location;lat;lon;timestamp;P1;durP1;ratioP1;P2;durP2;ratioP2
35693;SDS011;21812;55.536;37.664;2023-06-22T00:01:18;19.13;;;12.00;;
35693;SDS011;21812;55.536;37.664;2023-06-22T00:03:44;18.83;;;11.02;;
35693;SDS011;21812;55.536;37.664;2023-06-22T00:06:09;15.27;;;11.43;;
35693;SDS011;21812;55.536;37.664;2023-06-22T00:08:35;19.05;;;14.05;;
35693;SDS011;21812;55.536;37.664;2023-06-22T00:11:01;22.65;;;16.15;;
35693;SDS011;21812;55.536;37.664;2023-06-22T00:13:27;22.98;;;15.55;;
35693;SDS011;21812;55.536;37.664;2023-06-22T00:15:52;16.77;;;9.95;;
35693;SDS011;21812;55.536;37.664;2023-06-22T00:18:18;21.05;;;18.30;;
35693;SDS011;21812;55.536;37.664;2023-06-22T00:20:45;35.05;;;25.17;;
35693;SDS011;21812;55.536;37.664;2023-06-22T00:23:12;27.30;;;23.25;;
35693;SDS011;21812;55.536;37.664;2023-06-22T00:25:41;27.33;;;22.35;;
35693;SDS011;21812;55.536;37.664;2023-06-22T00:28:07;15.10;;;11.52;;
35693;SDS011;21812;55.536;37.664;2023-06-22T00:30:35;19.75;;;16.17;;
35693;SDS011;21812;55.536;37.664;2023-06-22T00:33:02;58.33;;;32.38;;
35693;SDS011;21812;55.536;37.664;2023-06-22T00:35:28;22.80;;;17.25;;
35693;SDS011;21812;55.536;37.664;2023-06-22T00:37:57;31.17;;;23.85;;
35693;SDS011;21812;55.536;37.664;2023-06-22T00:40:27;23.77;;;20.13;;
35693;SDS011;21812;55.536;37.664;2023-06-22T00:42:53;25.55;;;21.65;;
35693;SDS011;21812;55.536;37.664;2023-06-22T00:45:20;32.20;;;28.77;;
35693;SDS011;21812;55.536;37.664;2023-06-22T00:47:47;37.15;;;31.52;;
35693;SDS011;21812;55.536;37.664;2023-06-22T00:50:13;45.47;;;35.83;;
35693;SDS011;21812;55.536;37.664;2023-06-22T00:52:55;54.50;;;45.30;;
35693;SDS011;21812;55.536;37.664;2023-06-22T00:55:22;44.80;;;38.42;;
35693;SDS011;21812;55.536;37.664;2023-06-22T00:57:48;39.65;;;33.10;;
35693;SDS011;21812;55.536;37.664;2023-06-22T01:00:15;34.13;;;30.42;;
35693;SDS011;21812;55.536;37.664;2023-06-22T01:02:45;26.05;;;23.25;;
35693;SDS011;21812;55.536;37.664;2023-06-22T01:05:15;44.35;;;34.47;;
35693;SDS011;21812;55.536;37.664;2023-06-22T01:07:43;33.30;;;29.60;;
35693;SDS011;21812;55.536;37.664;2023-06-22T01:10:30;29.35;;;24.45;;
35693;SDS011;21812;55.536;37.664;2023-06-22T01:13:01;33.95;;;26.38;;
35693;SDS011;21812;55.536;37.664;2023-06-22T01:18:17;34.38;;;26.20;;
35693;SDS011;21812;55.536;37.664;2023-06-22T01:20:45;31.40;;;24.58;;
35693;SDS011;21812;55.536;37.664;2023-06-22T01:30:59;23.55;;;20.95;;
35693;SDS011;21812;55.536;37.664;2023-06-22T01:33:34;27.50;;;21.58;;
35693;SDS011;21812;55.536;37.664;2023-06-22T01:36:02;24.23;;;21.48;;
35693;SDS011;21812;55.536;37.664;2023-06-22T01:38:30;27.48;;;22.75;;
35693;SDS011;21812;55.536;37.664;2023-06-22T01:40:57;26.40;;;23.13;;
35693;SDS011;21812;55.536;37.664;2023-06-22T01:43:25;27.42;;;20.33;;
35693;SDS011;21812;55.536;37.664;2023-06-22T01:45:52;23.20;;;19.92;;
35693;SDS011;21812;55.536;37.664;2023-06-22T01:48:20;30.42;;;25.02;;
35693;SDS011;21812;55.536;37.664;2023-06-22T01:50:47;32.30;;;23.65;;
35693;SDS011;21812;55.536;37.664;2023-06-22T01:53:13;27.63;;;24.67;;
35693;SDS011;21812;55.536;37.664;2023-06-22T01:55:39;28.17;;;24.40;;
35693;SDS011;21812;55.536;37.664;2023-06-22T01:58:05;33.28;;;22.05;;
35693;SDS011;21812;55.536;37.664;2023-06-22T02:00:35;23.88;;;20.08;;
35693;SDS011;21812;55.536;37.664;2023-06-22T02:03:05;19.38;;;16.55;;
35693;SDS011;21812;55.536;37.664;2023-06-22T02:05:38;18.83;;;15.57;;
35693;SDS011;21812;55.536;37.664;2023-06-22T02:08:09;22.42;;;16.55;;
35693;SDS011;21812;55.536;37.664;2023-06-22T02:13:08;24.17;;;17.85;;
35693;SDS011;21812;55.536;37.664;2023-06-22T02:15:36;26.60;;;19.50;;
35693;SDS011;21812;55.536;37.664;2023-06-22T02:18:04;28.00;;;20.20;;
35693;SDS011;21812;55.536;37.664;2023-06-22T02:20:50;19.73;;;17.20;;
35693;SDS011;21812;55.536;37.664;2023-06-22T02:23:15;28.08;;;18.77;;
35693;SDS011;21812;55.536;37.664;2023-06-22T02:25:41;21.00;;;16.67;;
35693;SDS011;21812;55.536;37.664;2023-06-22T02:28:10;19.27;;;15.48;;
35693;SDS011;21812;55.536;37.664;2023-06-22T02:30:37;18.88;;;15.18;;
35693;SDS011;21812;55.536;37.664;2023-06-22T02:33:07;22.02;;;14.73;;
35693;SDS011;21812;55.536;37.664;2023-06-22T02:35:33;17.00;;;14.35;;
35693;SDS011;21812;55.536;37.664;2023-06-22T02:38:02;18.95;;;14.82;;
35693;SDS011;21812;55.536;37.664;2023-06-22T02:40:29;20.80;;;14.43;;
35693;SDS011;21812;55.536;37.664;2023-06-22T02:42:56;15.73;;;13.02;;
35693;SDS011;21812;55.536;37.664;2023-06-22T02:45:30;19.38;;;13.50;;
35693;SDS011;21812;55.536;37.664;2023-06-22T02:47:57;20.33;;;12.55;;
35693;SDS011;21812;55.536;37.664;2023-06-22T02:50:23;16.73;;;10.75;;
35693;SDS011;21812;55.536;37.664;2023-06-22T02:52:49;15.50;;;12.75;;
35693;SDS011;21812;55.536;37.664;2023-06-22T02:55:15;16.25;;;11.05;;
35693;SDS011;21812;55.536;37.664;2023-06-22T02:57:47;18.00;;;11.60;;
35693;SDS011;21812;55.536;37.664;2023-06-22T03:00:13;15.13;;;10.63;;
35693;SDS011;21812;55.536;37.664;2023-06-22T03:02:45;14.52;;;10.48;;
35693;SDS011;21812;55.536;37.664;2023-06-22T03:05:12;17.02;;;9.82;;
35693;SDS011;21812;55.536;37.664;2023-06-22T03:07:40;16.55;;;9.88;;
35693;SDS011;21812;55.536;37.664;2023-06-22T03:10:11;14.05;;;10.23;;
35693;SDS011;21812;55.536;37.664;2023-06-22T03:12:38;10.82;;;8.45;;
35693;SDS011;21812;55.536;37.664;2023-06-22T03:15:08;14.25;;;9.48;;
35693;SDS011;21812;55.536;37.664;2023-06-22T03:17:36;16.92;;;10.43;;
35693;SDS011;21812;55.536;37.664;2023-06-22T03:20:04;15.75;;;9.38;;
35693;SDS011;21812;55.536;37.664;2023-06-22T03:22:36;8.43;;;7.53;;
35693;SDS011;21812;55.536;37.664;2023-06-22T03:25:02;14.38;;;10.32;;
35693;SDS011;21812;55.536;37.664;2023-06-22T03:27:31;21.35;;;10.48;;
35693;SDS011;21812;55.536;37.664;2023-06-22T03:29:57;30.85;;;11.75;;
35693;SDS011;21812;55.536;37.664;2023-06-22T03:32:23;31.45;;;9.80;;
35693;SDS011;21812;55.536;37.664;2023-06-22T03:34:50;17.67;;;9.05;;
35693;SDS011;21812;55.536;37.664;2023-06-22T03:37:16;23.98;;;10.10;;
35693;SDS011;21812;55.536;37.664;2023-06-22T03:39:42;28.20;;;9.52;;
35693;SDS011;21812;55.536;37.664;2023-06-22T03:42:08;14.35;;;8.23;;
35693;SDS011;21812;55.536;37.664;2023-06-22T03:44:34;20.25;;;9.07;;
35693;SDS011;21812;55.536;37.664;2023-06-22T03:47:02;18.92;;;8.30;;
35693;SDS011;21812;55.536;37.664;2023-06-22T03:49:29;16.52;;;9.00;;
35693;SDS011;21812;55.536;37.664;2023-06-22T03:51:55;29.08;;;12.05;;
35693;SDS011;21812;55.536;37.664;2023-06-22T03:54:21;39.95;;;14.38;;
35693;SDS011;21812;55.536;37.664;2023-06-22T03:56:47;30.65;;;11.73;;
35693;SDS011;21812;55.536;37.664;2023-06-22T03:59:12;21.65;;;11.40;;
35693;SDS011;21812;55.536;37.664;2023-06-22T04:01:38;20.52;;;9.80;;
35693;SDS011;21812;55.536;37.664;2023-06-22T04:04:05;27.13;;;9.52;;
35693;SDS011;21812;55.536;37.664;2023-06-22T04:06:31;18.92;;;9.00;;
35693;SDS011;21812;55.536;37.664;2023-06-22T04:08:56;20.27;;;9.75;;
35693;SDS011;21812;55.536;37.664;2023-06-22T04:11:22;18.13;;;7.97;;
35693;SDS011;21812;55.536;37.664;2023-06-22T04:13:48;18.92;;;8.30;;
35693;SDS011;21812;55.536;37.664;2023-06-22T04:16:14;18.50;;;8.25;;
35693;SDS011;21812;55.536;37.664;2023-06-22T04:18:40;10.27;;;7.25;;
35693;SDS011;21812;55.536;37.664;2023-06-22T04:21:07;23.23;;;7.65;;
35693;SDS011;21812;55.536;37.664;2023-06-22T04:23:32;14.82;;;6.70;;
35693;SDS011;21812;55.536;37.664;2023-06-22T04:25:58;10.02;;;5.60;;
35693;SDS011;21812;55.536;37.664;2023-06-22T04:28:24;9.43;;;5.72;;
35693;SDS011;21812;55.536;37.664;2023-06-22T04:30:50;8.88;;;6.07;;
35693;SDS011;21812;55.536;37.664;2023-06-22T04:33:16;7.78;;;4.85;;
35693;SDS011;21812;55.536;37.664;2023-06-22T04:35:44;7.95;;;4.05;;
35693;SDS011;21812;55.536;37.664;2023-06-22T04:38:11;7.30;;;4.35;;
35693;SDS011;21812;55.536;37.664;2023-06-22T04:40:39;5.53;;;3.95;;
35693;SDS011;21812;55.536;37.664;2023-06-22T04:43:05;7.18;;;4.30;;
35693;SDS011;21812;55.536;37.664;2023-06-22T04:45:32;6.05;;;3.60;;
35693;SDS011;21812;55.536;37.664;2023-06-22T04:47:59;7.35;;;3.67;;
35693;SDS011;21812;55.536;37.664;2023-06-22T04:50:24;7.32;;;3.97;;
35693;SDS011;21812;55.536;37.664;2023-06-22T04:52:50;6.35;;;3.35;;
35693;SDS011;21812;55.536;37.664;2023-06-22T04:55:16;4.47;;;2.72;;
35693;SDS011;21812;55.536;37.664;2023-06-22T04:57:47;11.80;;;3.65;;
35693;SDS011;21812;55.536;37.664;2023-06-22T05:00:15;5.32;;;3.58;;
35693;SDS011;21812;55.536;37.664;2023-06-22T05:02:48;7.22;;;3.63;;
35693;SDS011;21812;55.536;37.664;2023-06-22T05:05:15;4.43;;;2.88;;
35693;SDS011;21812;55.536;37.664;2023-06-22T05:07:42;7.57;;;3.60;;
35693;SDS011;21812;55.536;37.664;2023-06-22T05:10:12;8.35;;;3.75;;
35693;SDS011;21812;55.536;37.664;2023-06-22T05:12:38;4.78;;;3.35;;
35693;SDS011;21812;55.536;37.664;2023-06-22T05:15:05;8.85;;;3.45;;
35693;SDS011;21812;55.536;37.664;2023-06-22T05:17:35;5.25;;;3.60;;
35693;SDS011;21812;55.536;37.664;2023-06-22T05:20:02;3.70;;;3.10;;
35693;SDS011;21812;55.536;37.664;2023-06-22T05:22:32;7.78;;;3.17;;
35693;SDS011;21812;55.536;37.664;2023-06-22T05:24:57;6.03;;;3.20;;
35693;SDS011;21812;55.536;37.664;2023-06-22T05:27:23;12.27;;;3.70;;
35693;SDS011;21812;55.536;37.664;2023-06-22T05:29:49;9.27;;;3.85;;
35693;SDS011;21812;55.536;37.664;2023-06-22T05:32:14;4.07;;;3.45;;
35693;SDS011;21812;55.536;37.664;2023-06-22T05:34:40;4.88;;;3.33;;
35693;SDS011;21812;55.536;37.664;2023-06-22T05:37:06;6.90;;;4.05;;
35693;SDS011;21812;55.536;37.664;2023-06-22T05:39:32;5.82;;;3.70;;
35693;SDS011;21812;55.536;37.664;2023-06-22T05:41:57;5.13;;;3.13;;
35693;SDS011;21812;55.536;37.664;2023-06-22T05:44:23;9.48;;;3.47;;
35693;SDS011;21812;55.536;37.664;2023-06-22T05:46:49;87.95;;;43.88;;
35693;SDS011;21812;55.536;37.664;2023-06-22T05:49:15;8.82;;;4.40;;
35693;SDS011;21812;55.536;37.664;2023-06-22T05:51:42;9.48;;;3.22;;
35693;SDS011;21812;55.536;37.664;2023-06-22T05:54:08;7.18;;;4.05;;
35693;SDS011;21812;55.536;37.664;2023-06-22T05:56:34;6.53;;;3.63;;
35693;SDS011;21812;55.536;37.664;2023-06-22T05:59:00;8.38;;;3.60;;
35693;SDS011;21812;55.536;37.664;2023-06-22T06:01:26;8.68;;;4.15;;
35693;SDS011;21812;55.536;37.664;2023-06-22T06:03:51;5.88;;;3.45;;
35693;SDS011;21812;55.536;37.664;2023-06-22T06:06:18;6.97;;;4.05;;
35693;SDS011;21812;55.536;37.664;2023-06-22T06:08:48;6.18;;;3.40;;
35693;SDS011;21812;55.536;37.664;2023-06-22T06:11:14;5.88;;;3.30;;
35693;SDS011;21812;55.536;37.664;2023-06-22T06:13:40;4.00;;;3.35;;
35693;SDS011;21812;55.536;37.664;2023-06-22T06:16:05;5.60;;;3.60;;
35693;SDS011;21812;55.536;37.664;2023-06-22T06:18:31;9.75;;;3.00;;
35693;SDS011;21812;55.536;37.664;2023-06-22T06:20:57;6.80;;;3.38;;
35693;SDS011;21812;55.536;37.664;2023-06-22T06:23:22;6.85;;;3.33;;
35693;SDS011;21812;55.536;37.664;2023-06-22T06:25:48;6.10;;;3.40;;
35693;SDS011;21812;55.536;37.664;2023-06-22T06:28:14;8.18;;;3.10;;
35693;SDS011;21812;55.536;37.664;2023-06-22T06:30:39;5.82;;;3.22;;
35693;SDS011;21812;55.536;37.664;2023-06-22T06:33:06;5.28;;;3.05;;
35693;SDS011;21812;55.536;37.664;2023-06-22T06:35:36;4.88;;;2.83;;
35693;SDS011;21812;55.536;37.664;2023-06-22T06:38:03;4.38;;;3.15;;
35693;SDS011;21812;55.536;37.664;2023-06-22T06:40:28;6.07;;;3.03;;
35693;SDS011;21812;55.536;37.664;2023-06-22T06:42:54;5.82;;;2.80;;
35693;SDS011;21812;55.536;37.664;2023-06-22T06:45:21;5.55;;;2.60;;
35693;SDS011;21812;55.536;37.664;2023-06-22T06:47:48;4.00;;;2.72;;
35693;SDS011;21812;55.536;37.664;2023-06-22T06:50:15;10.27;;;3.42;;
35693;SDS011;21812;55.536;37.664;2023-06-22T06:52:42;4.07;;;3.08;;
35693;SDS011;21812;55.536;37.664;2023-06-22T06:55:08;5.63;;;3.30;;
35693;SDS011;21812;55.536;37.664;2023-06-22T06:57:39;5.05;;;2.90;;
35693;SDS011;21812;55.536;37.664;2023-06-22T07:00:06;5.07;;;2.97;;
35693;SDS011;21812;55.536;37.664;2023-06-22T07:02:35;5.30;;;3.03;;
35693;SDS011;21812;55.536;37.664;2023-06-22T07:05:01;4.28;;;3.65;;
35693;SDS011;21812;55.536;37.664;2023-06-22T07:07:30;8.18;;;3.60;;
35693;SDS011;21812;55.536;37.664;2023-06-22T07:09:55;6.68;;;3.40;;
35693;SDS011;21812;55.536;37.664;2023-06-22T07:12:21;6.15;;;3.95;;
35693;SDS011;21812;55.536;37.664;2023-06-22T07:14:47;3.72;;;2.72;;
35693;SDS011;21812;55.536;37.664;2023-06-22T07:17:13;3.47;;;2.97;;
35693;SDS011;21812;55.536;37.664;2023-06-22T07:19:38;4.15;;;2.92;;
35693;SDS011;21812;55.536;37.664;2023-06-22T07:22:04;3.40;;;3.10;;
35693;SDS011;21812;55.536;37.664;2023-06-22T07:24:30;5.95;;;3.38;;
35693;SDS011;21812;55.536;37.664;2023-06-22T07:26:56;3.22;;;2.92;;
35693;SDS011;21812;55.536;37.664;2023-06-22T07:29:22;4.80;;;3.13;;
35693;SDS011;21812;55.536;37.664;2023-06-22T07:31:49;3.65;;;2.50;;
35693;SDS011;21812;55.536;37.664;2023-06-22T07:34:17;8.63;;;3.80;;
35693;SDS011;21812;55.536;37.664;2023-06-22T07:36:43;3.58;;;3.28;;
35693;SDS011;21812;55.536;37.664;2023-06-22T07:39:09;6.63;;;3.67;;
35693;SDS011;21812;55.536;37.664;2023-06-22T07:41:35;6.25;;;3.35;;
35693;SDS011;21812;55.536;37.664;2023-06-22T07:44:04;7.88;;;3.47;;
35693;SDS011;21812;55.536;37.664;2023-06-22T07:46:31;4.07;;;2.95;;
35693;SDS011;21812;55.536;37.664;2023-06-22T07:48:57;5.35;;;3.20;;
35693;SDS011;21812;55.536;37.664;2023-06-22T07:51:25;5.57;;;3.53;;
35693;SDS011;21812;55.536;37.664;2023-06-22T07:53:50;4.80;;;3.45;;
35693;SDS011;21812;55.536;37.664;2023-06-22T07:56:16;4.05;;;2.67;;
35693;SDS011;21812;55.536;37.664;2023-06-22T07:58:46;4.60;;;3.15;;
35693;SDS011;21812;55.536;37.664;2023-06-22T08:01:13;11.32;;;4.80;;
35693;SDS011;21812;55.536;37.664;2023-06-22T08:03:39;11.85;;;3.55;;
35693;SDS011;21812;55.536;37.664;2023-06-22T08:06:05;4.70;;;3.08;;
35693;SDS011;21812;55.536;37.664;2023-06-22T08:08:34;5.43;;;3.65;;
35693;SDS011;21812;55.536;37.664;2023-06-22T08:11:00;4.65;;;3.50;;
35693;SDS011;21812;55.536;37.664;2023-06-22T08:13:26;5.28;;;2.95;;
35693;SDS011;21812;55.536;37.664;2023-06-22T08:15:52;7.10;;;3.67;;
35693;SDS011;21812;55.536;37.664;2023-06-22T08:18:18;3.90;;;3.00;;
35693;SDS011;21812;55.536;37.664;2023-06-22T08:20:43;3.95;;;3.28;;
35693;SDS011;21812;55.536;37.664;2023-06-22T08:23:09;7.95;;;3.83;;
35693;SDS011;21812;55.536;37.664;2023-06-22T08:25:35;5.72;;;3.47;;
35693;SDS011;21812;55.536;37.664;2023-06-22T08:28:01;3.75;;;3.22;;
35693;SDS011;21812;55.536;37.664;2023-06-22T08:30:28;3.80;;;3.05;;
35693;SDS011;21812;55.536;37.664;2023-06-22T08:32:54;6.05;;;3.20;;
35693;SDS011;21812;55.536;37.664;2023-06-22T08:35:21;6.72;;;3.35;;
35693;SDS011;21812;55.536;37.664;2023-06-22T08:37:47;6.25;;;3.05;;
35693;SDS011;21812;55.536;37.664;2023-06-22T08:40:18;3.90;;;2.83;;
35693;SDS011;21812;55.536;37.664;2023-06-22T08:42:45;5.57;;;3.22;;
35693;SDS011;21812;55.536;37.664;2023-06-22T08:45:12;7.38;;;3.25;;
35693;SDS011;21812;55.536;37.664;2023-06-22T08:47:38;9.02;;;4.10;;
35693;SDS011;21812;55.536;37.664;2023-06-22T08:50:05;5.28;;;3.20;;
35693;SDS011;21812;55.536;37.664;2023-06-22T08:52:33;4.63;;;3.38;;
35693;SDS011;21812;55.536;37.664;2023-06-22T08:54:59;5.40;;;3.42;;
35693;SDS011;21812;55.536;37.664;2023-06-22T08:57:25;3.80;;;2.90;;
35693;SDS011;21812;55.536;37.664;2023-06-22T08:59:51;6.07;;;3.28;;
35693;SDS011;21812;55.536;37.664;2023-06-22T09:02:18;7.28;;;4.05;;
35693;SDS011;21812;55.536;37.664;2023-06-22T09:04:47;6.78;;;3.30;;
35693;SDS011;21812;55.536;37.664;2023-06-22T09:07:14;5.68;;;3.33;;
35693;SDS011;21812;55.536;37.664;2023-06-22T09:09:39;5.57;;;3.13;;
35693;SDS011;21812;55.536;37.664;2023-06-22T09:12:05;3.10;;;2.67;;
35693;SDS011;21812;55.536;37.664;2023-06-22T09:14:31;5.70;;;3.45;;
35693;SDS011;21812;55.536;37.664;2023-06-22T09:16:57;4.18;;;2.88;;
35693;SDS011;21812;55.536;37.664;2023-06-22T09:19:23;4.55;;;3.17;;
35693;SDS011;21812;55.536;37.664;2023-06-22T09:21:48;6.25;;;3.20;;
35693;SDS011;21812;55.536;37.664;2023-06-22T09:24:14;3.95;;;3.17;;
35693;SDS011;21812;55.536;37.664;2023-06-22T09:26:40;5.97;;;2.90;;
35693;SDS011;21812;55.536;37.664;2023-06-22T09:29:06;3.63;;;3.30;;
35693;SDS011;21812;55.536;37.664;2023-06-22T09:31:31;5.72;;;3.28;;
35693;SDS011;21812;55.536;37.664;2023-06-22T09:33:57;13.82;;;4.95;;
35693;SDS011;21812;55.536;37.664;2023-06-22T09:36:23;5.80;;;3.25;;
35693;SDS011;21812;55.536;37.664;2023-06-22T09:38:49;3.53;;;3.03;;
35693;SDS011;21812;55.536;37.664;2023-06-22T09:41:23;4.95;;;3.22;;
35693;SDS011;21812;55.536;37.664;2023-06-22T09:43:50;7.45;;;3.42;;
35693;SDS011;21812;55.536;37.664;2023-06-22T09:46:16;5.55;;;3.53;;
35693;SDS011;21812;55.536;37.664;2023-06-22T09:48:42;5.90;;;3.78;;
35693;SDS011;21812;55.536;37.664;2023-06-22T09:51:08;12.25;;;3.90;;
35693;SDS011;21812;55.536;37.664;2023-06-22T09:53:34;4.65;;;3.90;;
35693;SDS011;21812;55.536;37.664;2023-06-22T09:56:00;8.15;;;3.30;;
35693;SDS011;21812;55.536;37.664;2023-06-22T09:58:27;4.70;;;3.63;;
35693;SDS011;21812;55.536;37.664;2023-06-22T10:00:53;5.38;;;3.28;;
35693;SDS011;21812;55.536;37.664;2023-06-22T10:03:20;4.13;;;3.53;;
35693;SDS011;21812;55.536;37.664;2023-06-22T10:05:46;5.18;;;3.65;;
35693;SDS011;21812;55.536;37.664;2023-06-22T10:08:12;5.78;;;3.22;;
35693;SDS011;21812;55.536;37.664;2023-06-22T10:10:38;5.78;;;3.75;;
35693;SDS011;21812;55.536;37.664;2023-06-22T10:13:09;4.97;;;3.35;;
35693;SDS011;21812;55.536;37.664;2023-06-22T10:15:36;6.68;;;4.05;;
35693;SDS011;21812;55.536;37.664;2023-06-22T10:18:02;4.45;;;3.25;;
35693;SDS011;21812;55.536;37.664;2023-06-22T10:20:31;3.97;;;3.22;;
35693;SDS011;21812;55.536;37.664;2023-06-22T10:22:57;6.75;;;3.80;;
35693;SDS011;21812;55.536;37.664;2023-06-22T10:25:22;6.75;;;3.63;;
35693;SDS011;21812;55.536;37.664;2023-06-22T10:27:48;5.60;;;3.72;;
35693;SDS011;21812;55.536;37.664;2023-06-22T10:30:14;4.10;;;3.60;;
35693;SDS011;21812;55.536;37.664;2023-06-22T10:32:41;5.10;;;3.75;;
35693;SDS011;21812;55.536;37.664;2023-06-22T10:35:08;5.55;;;3.65;;
35693;SDS011;21812;55.536;37.664;2023-06-22T10:37:38;4.43;;;3.00;;
35693;SDS011;21812;55.536;37.664;2023-06-22T10:40:04;4.90;;;3.63;;
35693;SDS011;21812;55.536;37.664;2023-06-22T10:42:31;5.90;;;3.55;;
35693;SDS011;21812;55.536;37.664;2023-06-22T10:44:57;5.55;;;3.80;;
35693;SDS011;21812;55.536;37.664;2023-06-22T10:47:22;5.18;;;3.42;;
35693;SDS011;21812;55.536;37.664;2023-06-22T10:49:48;3.85;;;3.30;;
35693;SDS011;21812;55.536;37.664;2023-06-22T10:52:14;6.72;;;3.70;;
35693;SDS011;21812;55.536;37.664;2023-06-22T10:54:40;6.50;;;3.80;;
35693;SDS011;21812;55.536;37.664;2023-06-22T10:57:06;4.45;;;3.60;;
35693;SDS011;21812;55.536;37.664;2023-06-22T10:59:32;4.40;;;4.00;;
35693;SDS011;21812;55.536;37.664;2023-06-22T11:01:58;3.72;;;3.40;;
35693;SDS011;21812;55.536;37.664;2023-06-22T11:04:24;4.80;;;3.40;;
35693;SDS011;21812;55.536;37.664;2023-06-22T11:06:50;3.92;;;3.40;;
35693;SDS011;21812;55.536;37.664;2023-06-22T11:09:16;6.03;;;3.65;;
35693;SDS011;21812;55.536;37.664;2023-06-22T11:11:49;6.43;;;3.65;;
35693;SDS011;21812;55.536;37.664;2023-06-22T11:14:19;5.78;;;3.83;;
35693;SDS011;21812;55.536;37.664;2023-06-22T11:16:45;4.72;;;3.60;;
35693;SDS011;21812;55.536;37.664;2023-06-22T11:19:11;5.65;;;3.60;;
35693;SDS011;21812;55.536;37.664;2023-06-22T11:21:37;4.75;;;3.78;;
35693;SDS011;21812;55.536;37.664;2023-06-22T11:24:03;4.35;;;3.20;;
35693;SDS011;21812;55.536;37.664;2023-06-22T11:26:30;6.53;;;3.92;;
35693;SDS011;21812;55.536;37.664;2023-06-22T11:28:57;5.15;;;3.88;;
35693;SDS011;21812;55.536;37.664;2023-06-22T11:31:23;4.63;;;4.10;;
35693;SDS011;21812;55.536;37.664;2023-06-22T11:33:49;9.00;;;4.05;;
35693;SDS011;21812;55.536;37.664;2023-06-22T11:36:15;6.28;;;4.07;;
35693;SDS011;21812;55.536;37.664;2023-06-22T11:38:41;7.07;;;3.85;;
35693;SDS011;21812;55.536;37.664;2023-06-22T11:41:08;5.22;;;3.90;;
35693;SDS011;21812;55.536;37.664;2023-06-22T11:43:35;5.20;;;4.00;;
35693;SDS011;21812;55.536;37.664;2023-06-22T11:46:03;4.00;;;3.28;;
35693;SDS011;21812;55.536;37.664;2023-06-22T11:48:29;7.32;;;3.72;;
35693;SDS011;21812;55.536;37.664;2023-06-22T11:50:55;4.18;;;3.78;;
35693;SDS011;21812;55.536;37.664;2023-06-22T11:53:22;3.80;;;3.40;;
35693;SDS011;21812;55.536;37.664;2023-06-22T11:55:49;7.57;;;3.83;;
35693;SDS011;21812;55.536;37.664;2023-06-22T11:58:15;8.02;;;3.97;;
35693;SDS011;21812;55.536;37.664;2023-06-22T12:00:41;6.78;;;3.70;;
35693;SDS011;21812;55.536;37.664;2023-06-22T12:03:07;6.85;;;3.90;;
35693;SDS011;21812;55.536;37.664;2023-06-22T12:05:34;4.68;;;4.20;;
35693;SDS011;21812;55.536;37.664;2023-06-22T12:08:00;5.38;;;3.45;;
35693;SDS011;21812;55.536;37.664;2023-06-22T12:10:26;4.30;;;3.83;;
35693;SDS011;21812;55.536;37.664;2023-06-22T12:12:55;4.97;;;4.00;;
35693;SDS011;21812;55.536;37.664;2023-06-22T12:15:20;4.13;;;3.60;;
35693;SDS011;21812;55.536;37.664;2023-06-22T12:17:46;5.97;;;3.88;;
35693;SDS011;21812;55.536;37.664;2023-06-22T12:20:13;6.40;;;4.05;;
35693;SDS011;21812;55.536;37.664;2023-06-22T12:22:40;4.30;;;3.83;;
35693;SDS011;21812;55.536;37.664;2023-06-22T12:25:06;4.72;;;4.18;;
35693;SDS011;21812;55.536;37.664;2023-06-22T12:27:33;6.25;;;3.72;;
35693;SDS011;21812;55.536;37.664;2023-06-22T12:29:59;8.25;;;4.30;;
35693;SDS011;21812;55.536;37.664;2023-06-22T12:32:24;8.35;;;3.95;;
35693;SDS011;21812;55.536;37.664;2023-06-22T12:34:50;4.07;;;3.58;;
35693;SDS011;21812;55.536;37.664;2023-06-22T12:37:16;3.97;;;3.63;;
35693;SDS011;21812;55.536;37.664;2023-06-22T12:39:42;6.45;;;3.80;;
35693;SDS011;21812;55.536;37.664;2023-06-22T12:42:08;4.38;;;3.78;;
35693;SDS011;21812;55.536;37.664;2023-06-22T12:44:35;6.57;;;4.30;;
35693;SDS011;21812;55.536;37.664;2023-06-22T12:47:01;6.10;;;3.70;;
35693;SDS011;21812;55.536;37.664;2023-06-22T12:49:26;6.00;;;3.35;;
35693;SDS011;21812;55.536;37.664;2023-06-22T12:51:52;5.47;;;4.07;;
35693;SDS011;21812;55.536;37.664;2023-06-22T12:54:18;5.50;;;3.97;;
35693;SDS011;21812;55.536;37.664;2023-06-22T12:56:43;6.80;;;3.83;;
35693;SDS011;21812;55.536;37.664;2023-06-22T12:59:10;4.07;;;3.78;;
35693;SDS011;21812;55.536;37.664;2023-06-22T13:01:36;4.65;;;4.25;;
35693;SDS011;21812;55.536;37.664;2023-06-22T13:04:02;4.85;;;3.97;;
35693;SDS011;21812;55.536;37.664;2023-06-22T13:06:28;5.88;;;4.07;;
35693;SDS011;21812;55.536;37.664;2023-06-22T13:08:54;10.13;;;3.63;;
35693;SDS011;21812;55.536;37.664;2023-06-22T13:11:20;8.18;;;4.63;;
35693;SDS011;21812;55.536;37.664;2023-06-22T13:13:46;4.85;;;4.35;;
35693;SDS011;21812;55.536;37.664;2023-06-22T13:16:11;5.88;;;4.38;;
35693;SDS011;21812;55.536;37.664;2023-06-22T13:18:37;5.55;;;4.18;;
35693;SDS011;21812;55.536;37.664;2023-06-22T13:21:04;4.90;;;4.40;;
35693;SDS011;21812;55.536;37.664;2023-06-22T13:23:30;3.80;;;3.50;;
35693;SDS011;21812;55.536;37.664;2023-06-22T13:25:57;4.38;;;3.97;;
35693;SDS011;21812;55.536;37.664;2023-06-22T13:28:23;4.05;;;3.60;;
35693;SDS011;21812;55.536;37.664;2023-06-22T13:30:49;4.63;;;3.70;;
35693;SDS011;21812;55.536;37.664;2023-06-22T13:33:15;7.22;;;4.10;;
35693;SDS011;21812;55.536;37.664;2023-06-22T13:35:41;5.47;;;3.55;;
35693;SDS011;21812;55.536;37.664;2023-06-22T13:38:10;5.22;;;4.25;;
35693;SDS011;21812;55.536;37.664;2023-06-22T13:40:36;6.03;;;4.65;;
35693;SDS011;21812;55.536;37.664;2023-06-22T13:43:03;5.13;;;3.83;;
35693;SDS011;21812;55.536;37.664;2023-06-22T13:45:30;8.75;;;5.72;;
35693;SDS011;21812;55.536;37.664;2023-06-22T13:47:55;7.28;;;3.90;;
35693;SDS011;21812;55.536;37.664;2023-06-22T13:50:21;5.25;;;4.75;;
35693;SDS011;21812;55.536;37.664;2023-06-22T13:52:47;4.72;;;4.20;;
35693;SDS011;21812;55.536;37.664;2023-06-22T13:55:13;6.18;;;3.80;;
35693;SDS011;21812;55.536;37.664;2023-06-22T13:57:39;5.03;;;4.43;;
35693;SDS011;21812;55.536;37.664;2023-06-22T14:00:07;6.28;;;3.83;;
35693;SDS011;21812;55.536;37.664;2023-06-22T14:02:39;5.30;;;3.72;;
35693;SDS011;21812;55.536;37.664;2023-06-22T14:05:06;4.50;;;4.10;;
35693;SDS011;21812;55.536;37.664;2023-06-22T14:07:33;9.88;;;5.50;;
35693;SDS011;21812;55.536;37.664;2023-06-22T14:09:59;5.13;;;4.15;;
35693;SDS011;21812;55.536;37.664;2023-06-22T14:12:25;14.27;;;4.65;;
35693;SDS011;21812;55.536;37.664;2023-06-22T14:14:50;9.18;;;4.10;;
35693;SDS011;21812;55.536;37.664;2023-06-22T14:17:16;5.35;;;3.85;;
35693;SDS011;21812;55.536;37.664;2023-06-22T14:19:42;4.55;;;3.58;;
35693;SDS011;21812;55.536;37.664;2023-06-22T14:22:07;4.97;;;3.90;;
35693;SDS011;21812;55.536;37.664;2023-06-22T14:24:33;8.15;;;4.25;;
35693;SDS011;21812;55.536;37.664;2023-06-22T14:26:59;5.97;;;5.38;;
35693;SDS011;21812;55.536;37.664;2023-06-22T14:29:28;8.75;;;5.05;;
35693;SDS011;21812;55.536;37.664;2023-06-22T14:31:53;6.05;;;4.10;;
35693;SDS011;21812;55.536;37.664;2023-06-22T14:34:19;6.25;;;4.65;;
35693;SDS011;21812;55.536;37.664;2023-06-22T14:36:45;8.00;;;4.88;;
35693;SDS011;21812;55.536;37.664;2023-06-22T14:39:11;6.97;;;4.90;;